sensor_id;sensor_type;location;lat;lon;timestamp;temperature;humidity
19256;DHT22;9762;52.490;13.410;2022-10-26T00:00:36;14.50;99.90
19256;DHT22;9762;52.490;13.410;2022-10-26T00:03:02;14.50;99.90
19256;DHT22;9762;52.490;13.410;2022-10-26T00:05:27;14.40;99.90
19256;DHT22;9762;52.490;13.410;2022-10-26T00:07:56;14.40;99.90
19256;DHT22;9762;52.490;13.410;2022-10-26T00:10:21;14.40;99.90
19256;DHT22;9762;52.490;13.410;2022-10-26T00:12:49;14.40;99.90
19256;DHT22;9762;52.490;13.410;2022-10-26T00:15:15;14.40;99.90
19256;DHT22;9762;52.490;13.410;2022-10-26T00:17:40;14.40;99.90
19256;DHT22;9762;52.490;13.410;2022-10-26T00:20:06;14.40;99.90
19256;DHT22;9762;52.490;13.410;2022-10-26T00:22:32;14.40;99.90
19256;DHT22;9762;52.490;13.410;2022-10-26T00:24:57;14.40;99.90
19256;DHT22;9762;52.490;13.410;2022-10-26T00:27:23;14.40;99.90
19256;DHT22;9762;52.490;13.410;2022-10-26T00:29:48;14.40;99.90
19256;DHT22;9762;52.490;13.410;2022-10-26T00:32:14;14.40;99.90
19256;DHT22;9762;52.490;13.410;2022-10-26T00:34:40;14.40;99.90
19256;DHT22;9762;52.490;13.410;2022-10-26T00:37:05;14.40;99.90
19256;DHT22;9762;52.490;13.410;2022-10-26T00:39:31;14.40;99.90
19256;DHT22;9762;52.490;13.410;2022-10-26T00:41:56;14.30;99.90
19256;DHT22;9762;52.490;13.410;2022-10-26T00:47:17;14.30;99.90
19256;DHT22;9762;52.490;13.410;2022-10-26T00:49:46;14.30;99.90
19256;DHT22;9762;52.490;13.410;2022-10-26T00:52:14;14.30;99.90
19256;DHT22;9762;52.490;13.410;2022-10-26T00:54:42;14.30;99.90
19256;DHT22;9762;52.490;13.410;2022-10-26T00:57:08;14.30;99.90
19256;DHT22;9762;52.490;13.410;2022-10-26T00:59:33;14.30;99.90
19256;DHT22;9762;52.490;13.410;2022-10-26T01:01:59;14.30;99.90
19256;DHT22;9762;52.490;13.410;2022-10-26T01:04:25;14.30;99.90
19256;DHT22;9762;52.490;13.410;2022-10-26T01:06:51;14.30;99.90
19256;DHT22;9762;52.490;13.410;2022-10-26T01:09:18;14.30;99.90
19256;DHT22;9762;52.490;13.410;2022-10-26T01:11:44;14.30;99.90
19256;DHT22;9762;52.490;13.410;2022-10-26T01:14:11;14.30;99.90
19256;DHT22;9762;52.490;13.410;2022-10-26T01:22:38;14.30;99.90
19256;DHT22;9762;52.490;13.410;2022-10-26T01:25:34;14.30;99.90
19256;DHT22;9762;52.490;13.410;2022-10-26T01:28:26;14.30;99.90
19256;DHT22;9762;52.490;13.410;2022-10-26T01:30:57;14.20;99.90
19256;DHT22;9762;52.490;13.410;2022-10-26T01:33:44;14.30;99.90
19256;DHT22;9762;52.490;13.410;2022-10-26T01:41:53;14.20;99.90
19256;DHT22;9762;52.490;13.410;2022-10-26T01:44:33;14.30;99.90
19256;DHT22;9762;52.490;13.410;2022-10-26T01:47:04;14.30;99.90
19256;DHT22;9762;52.490;13.410;2022-10-26T01:49:35;14.30;99.90
19256;DHT22;9762;52.490;13.410;2022-10-26T01:52:02;14.20;99.90
19256;DHT22;9762;52.490;13.410;2022-10-26T01:54:28;14.20;99.90
19256;DHT22;9762;52.490;13.410;2022-10-26T01:56:58;14.20;99.90
19256;DHT22;9762;52.490;13.410;2022-10-26T02:02:17;14.20;99.90
19256;DHT22;9762;52.490;13.410;2022-10-26T02:10:52;14.20;99.90
19256;DHT22;9762;52.490;13.410;2022-10-26T02:13:30;14.20;99.90
19256;DHT22;9762;52.490;13.410;2022-10-26T02:18:41;14.20;99.90
19256;DHT22;9762;52.490;13.410;2022-10-26T02:21:17;14.20;99.90
19256;DHT22;9762;52.490;13.410;2022-10-26T02:23:46;14.10;99.90
19256;DHT22;9762;52.490;13.410;2022-10-26T02:26:15;14.10;99.90
19256;DHT22;9762;52.490;13.410;2022-10-26T02:28:46;14.10;99.90
19256;DHT22;9762;52.490;13.410;2022-10-26T02:31:14;14.10;99.90
19256;DHT22;9762;52.490;13.410;2022-10-26T02:33:44;14.10;99.90
19256;DHT22;9762;52.490;13.410;2022-10-26T02:36:15;14.10;99.90
19256;DHT22;9762;52.490;13.410;2022-10-26T02:38:41;14.00;99.90
19256;DHT22;9762;52.490;13.410;2022-10-26T02:41:09;14.00;99.90
19256;DHT22;9762;52.490;13.410;2022-10-26T02:43:42;14.00;99.90
19256;DHT22;9762;52.490;13.410;2022-10-26T02:46:14;14.00;99.90
19256;DHT22;9762;52.490;13.410;2022-10-26T02:48:41;13.90;99.90
19256;DHT22;9762;52.490;13.410;2022-10-26T02:51:30;13.90;99.90
19256;DHT22;9762;52.490;13.410;2022-10-26T02:54:09;13.80;99.90
19256;DHT22;9762;52.490;13.410;2022-10-26T02:56:47;13.80;99.90
19256;DHT22;9762;52.490;13.410;2022-10-26T02:59:18;13.80;99.90
19256;DHT22;9762;52.490;13.410;2022-10-26T03:01:44;13.70;99.90
19256;DHT22;9762;52.490;13.410;2022-10-26T03:04:10;13.70;99.90
19256;DHT22;9762;52.490;13.410;2022-10-26T03:06:35;13.70;99.90
19256;DHT22;9762;52.490;13.410;2022-10-26T03:09:01;13.70;99.90
19256;DHT22;9762;52.490;13.410;2022-10-26T03:11:26;13.70;99.90
19256;DHT22;9762;52.490;13.410;2022-10-26T03:13:52;13.70;99.90
19256;DHT22;9762;52.490;13.410;2022-10-26T03:16:17;13.70;99.90
19256;DHT22;9762;52.490;13.410;2022-10-26T03:18:43;13.70;99.90
19256;DHT22;9762;52.490;13.410;2022-10-26T03:21:08;13.70;99.90
19256;DHT22;9762;52.490;13.410;2022-10-26T03:23:34;13.70;99.90
19256;DHT22;9762;52.490;13.410;2022-10-26T03:25:59;13.70;99.90
19256;DHT22;9762;52.490;13.410;2022-10-26T03:28:25;13.70;99.90
19256;DHT22;9762;52.490;13.410;2022-10-26T03:30:51;13.70;99.90
19256;DHT22;9762;52.490;13.410;2022-10-26T03:33:16;13.70;99.90
19256;DHT22;9762;52.490;13.410;2022-10-26T03:35:42;13.70;99.90
19256;DHT22;9762;52.490;13.410;2022-10-26T03:38:08;13.70;99.90
19256;DHT22;9762;52.490;13.410;2022-10-26T03:40:34;13.70;99.90
19256;DHT22;9762;52.490;13.410;2022-10-26T03:43:01;13.70;99.90
19256;DHT22;9762;52.490;13.410;2022-10-26T03:45:26;13.70;99.90
19256;DHT22;9762;52.490;13.410;2022-10-26T03:47:52;13.70;99.90
19256;DHT22;9762;52.490;13.410;2022-10-26T03:50:19;13.70;99.90
19256;DHT22;9762;52.490;13.410;2022-10-26T03:52:46;13.70;99.90
19256;DHT22;9762;52.490;13.410;2022-10-26T03:55:12;13.70;99.90
19256;DHT22;9762;52.490;13.410;2022-10-26T03:57:44;13.70;99.90
19256;DHT22;9762;52.490;13.410;2022-10-26T04:00:12;13.70;99.90
19256;DHT22;9762;52.490;13.410;2022-10-26T04:02:40;13.70;99.90
19256;DHT22;9762;52.490;13.410;2022-10-26T04:05:06;13.70;99.90
19256;DHT22;9762;52.490;13.410;2022-10-26T04:07:32;13.60;99.90
19256;DHT22;9762;52.490;13.410;2022-10-26T04:09:57;13.70;99.90
19256;DHT22;9762;52.490;13.410;2022-10-26T04:12:23;13.70;99.90
19256;DHT22;9762;52.490;13.410;2022-10-26T04:14:48;13.70;99.90
19256;DHT22;9762;52.490;13.410;2022-10-26T04:17:14;13.70;99.90
19256;DHT22;9762;52.490;13.410;2022-10-26T04:19:39;13.60;99.90
19256;DHT22;9762;52.490;13.410;2022-10-26T04:22:05;13.60;99.90
19256;DHT22;9762;52.490;13.410;2022-10-26T04:24:30;13.60;99.90
19256;DHT22;9762;52.490;13.410;2022-10-26T04:26:56;13.60;99.90
19256;DHT22;9762;52.490;13.410;2022-10-26T04:29:21;13.60;99.90
19256;DHT22;9762;52.490;13.410;2022-10-26T04:31:47;13.60;99.90
19256;DHT22;9762;52.490;13.410;2022-10-26T04:34:12;13.60;99.90
19256;DHT22;9762;52.490;13.410;2022-10-26T04:36:38;13.60;99.90
19256;DHT22;9762;52.490;13.410;2022-10-26T04:39:03;13.50;99.90
19256;DHT22;9762;52.490;13.410;2022-10-26T04:41:29;13.50;99.90
19256;DHT22;9762;52.490;13.410;2022-10-26T04:43:54;13.50;99.90
19256;DHT22;9762;52.490;13.410;2022-10-26T04:46:20;13.50;99.90
19256;DHT22;9762;52.490;13.410;2022-10-26T04:48:47;13.50;99.90
19256;DHT22;9762;52.490;13.410;2022-10-26T04:51:12;13.50;99.90
19256;DHT22;9762;52.490;13.410;2022-10-26T04:53:38;13.50;99.90
19256;DHT22;9762;52.490;13.410;2022-10-26T04:56:04;13.50;99.90
19256;DHT22;9762;52.490;13.410;2022-10-26T04:58:29;13.50;99.90
19256;DHT22;9762;52.490;13.410;2022-10-26T05:00:55;13.50;99.90
19256;DHT22;9762;52.490;13.410;2022-10-26T05:03:21;13.50;99.90
19256;DHT22;9762;52.490;13.410;2022-10-26T05:05:47;13.50;99.90
19256;DHT22;9762;52.490;13.410;2022-10-26T05:08:13;13.50;99.90
19256;DHT22;9762;52.490;13.410;2022-10-26T05:10:38;13.50;99.90
19256;DHT22;9762;52.490;13.410;2022-10-26T05:13:04;13.50;99.90
19256;DHT22;9762;52.490;13.410;2022-10-26T05:15:30;13.50;99.90
19256;DHT22;9762;52.490;13.410;2022-10-26T05:18:00;13.40;99.90
19256;DHT22;9762;52.490;13.410;2022-10-26T05:20:28;13.40;99.90
19256;DHT22;9762;52.490;13.410;2022-10-26T05:22:59;13.40;99.90
19256;DHT22;9762;52.490;13.410;2022-10-26T05:25:25;13.40;99.90
19256;DHT22;9762;52.490;13.410;2022-10-26T05:27:55;13.30;99.90
19256;DHT22;9762;52.490;13.410;2022-10-26T05:30:21;13.30;99.90
19256;DHT22;9762;52.490;13.410;2022-10-26T05:32:55;13.20;99.90
19256;DHT22;9762;52.490;13.410;2022-10-26T05:35:21;13.20;99.90
19256;DHT22;9762;52.490;13.410;2022-10-26T05:37:47;13.20;99.90
19256;DHT22;9762;52.490;13.410;2022-10-26T05:40:12;13.20;99.90
19256;DHT22;9762;52.490;13.410;2022-10-26T05:42:38;13.20;99.90
19256;DHT22;9762;52.490;13.410;2022-10-26T05:45:03;13.20;99.90
19256;DHT22;9762;52.490;13.410;2022-10-26T05:47:29;13.20;99.90
19256;DHT22;9762;52.490;13.410;2022-10-26T05:49:55;13.20;99.90
19256;DHT22;9762;52.490;13.410;2022-10-26T05:52:20;13.10;99.90
19256;DHT22;9762;52.490;13.410;2022-10-26T05:54:46;13.10;99.90
19256;DHT22;9762;52.490;13.410;2022-10-26T05:57:12;13.10;99.90
19256;DHT22;9762;52.490;13.410;2022-10-26T05:59:38;13.00;99.90
19256;DHT22;9762;52.490;13.410;2022-10-26T06:05:49;13.10;99.90
19256;DHT22;9762;52.490;13.410;2022-10-26T06:08:15;13.10;99.90
19256;DHT22;9762;52.490;13.410;2022-10-26T06:10:41;13.10;99.90
19256;DHT22;9762;52.490;13.410;2022-10-26T06:13:07;13.10;99.90
19256;DHT22;9762;52.490;13.410;2022-10-26T06:15:37;13.00;99.90
19256;DHT22;9762;52.490;13.410;2022-10-26T06:18:52;13.10;99.90
19256;DHT22;9762;52.490;13.410;2022-10-26T06:21:17;13.10;99.90
19256;DHT22;9762;52.490;13.410;2022-10-26T06:24:11;13.10;99.90
19256;DHT22;9762;52.490;13.410;2022-10-26T06:26:57;13.20;99.90
19256;DHT22;9762;52.490;13.410;2022-10-26T06:29:59;13.20;99.90
19256;DHT22;9762;52.490;13.410;2022-10-26T06:32:25;13.20;99.90
19256;DHT22;9762;52.490;13.410;2022-10-26T06:34:55;13.20;99.90
19256;DHT22;9762;52.490;13.410;2022-10-26T06:37:23;13.30;99.90
19256;DHT22;9762;52.490;13.410;2022-10-26T06:39:50;13.30;99.90
19256;DHT22;9762;52.490;13.410;2022-10-26T06:42:16;13.30;99.90
19256;DHT22;9762;52.490;13.410;2022-10-26T06:44:42;13.30;99.90
19256;DHT22;9762;52.490;13.410;2022-10-26T06:47:36;13.40;99.90
19256;DHT22;9762;52.490;13.410;2022-10-26T06:52:50;13.50;99.90
19256;DHT22;9762;52.490;13.410;2022-10-26T06:55:21;13.50;99.90
19256;DHT22;9762;52.490;13.410;2022-10-26T06:57:47;13.50;99.90
19256;DHT22;9762;52.490;13.410;2022-10-26T07:00:21;13.60;99.90
19256;DHT22;9762;52.490;13.410;2022-10-26T07:02:46;13.60;99.90
19256;DHT22;9762;52.490;13.410;2022-10-26T07:05:13;13.60;99.90
19256;DHT22;9762;52.490;13.410;2022-10-26T07:07:46;13.60;99.90
19256;DHT22;9762;52.490;13.410;2022-10-26T07:10:13;13.60;99.90
19256;DHT22;9762;52.490;13.410;2022-10-26T07:12:39;13.60;99.90
19256;DHT22;9762;52.490;13.410;2022-10-26T07:15:05;13.70;99.90
19256;DHT22;9762;52.490;13.410;2022-10-26T07:17:44;13.70;99.90
19256;DHT22;9762;52.490;13.410;2022-10-26T07:20:11;13.70;99.90
19256;DHT22;9762;52.490;13.410;2022-10-26T07:22:37;13.80;99.90
19256;DHT22;9762;52.490;13.410;2022-10-26T07:25:03;13.80;99.90
19256;DHT22;9762;52.490;13.410;2022-10-26T07:27:29;13.90;99.90
19256;DHT22;9762;52.490;13.410;2022-10-26T07:29:54;13.90;99.90
19256;DHT22;9762;52.490;13.410;2022-10-26T07:32:20;13.90;99.90
19256;DHT22;9762;52.490;13.410;2022-10-26T07:34:45;13.90;99.90
19256;DHT22;9762;52.490;13.410;2022-10-26T07:37:11;13.90;99.90
19256;DHT22;9762;52.490;13.410;2022-10-26T07:39:36;14.00;99.90
19256;DHT22;9762;52.490;13.410;2022-10-26T07:42:02;14.00;99.90
19256;DHT22;9762;52.490;13.410;2022-10-26T07:44:27;14.10;99.90
19256;DHT22;9762;52.490;13.410;2022-10-26T07:46:53;14.10;99.90
19256;DHT22;9762;52.490;13.410;2022-10-26T07:49:19;14.10;99.90
19256;DHT22;9762;52.490;13.410;2022-10-26T07:51:44;14.20;99.90
19256;DHT22;9762;52.490;13.410;2022-10-26T07:54:10;14.20;99.90
19256;DHT22;9762;52.490;13.410;2022-10-26T07:56:35;14.30;99.90
19256;DHT22;9762;52.490;13.410;2022-10-26T07:59:01;14.30;99.90
19256;DHT22;9762;52.490;13.410;2022-10-26T08:01:26;14.30;99.90
19256;DHT22;9762;52.490;13.410;2022-10-26T08:03:53;14.40;99.90
19256;DHT22;9762;52.490;13.410;2022-10-26T08:06:22;14.40;99.90
19256;DHT22;9762;52.490;13.410;2022-10-26T08:08:48;14.40;99.90
19256;DHT22;9762;52.490;13.410;2022-10-26T08:11:14;14.50;99.90
19256;DHT22;9762;52.490;13.410;2022-10-26T08:13:40;14.50;99.90
19256;DHT22;9762;52.490;13.410;2022-10-26T08:16:06;14.60;99.90
19256;DHT22;9762;52.490;13.410;2022-10-26T08:18:32;14.60;99.90
19256;DHT22;9762;52.490;13.410;2022-10-26T08:21:04;14.60;99.90
19256;DHT22;9762;52.490;13.410;2022-10-26T08:23:30;14.70;99.90
19256;DHT22;9762;52.490;13.410;2022-10-26T08:26:00;14.70;99.90
19256;DHT22;9762;52.490;13.410;2022-10-26T08:28:26;14.80;99.90
19256;DHT22;9762;52.490;13.410;2022-10-26T08:30:52;14.80;99.90
19256;DHT22;9762;52.490;13.410;2022-10-26T08:33:18;14.90;99.90
19256;DHT22;9762;52.490;13.410;2022-10-26T08:35:43;14.90;99.90
19256;DHT22;9762;52.490;13.410;2022-10-26T08:38:09;15.00;99.90
19256;DHT22;9762;52.490;13.410;2022-10-26T08:40:40;15.00;99.90
19256;DHT22;9762;52.490;13.410;2022-10-26T08:43:29;15.10;99.90
19256;DHT22;9762;52.490;13.410;2022-10-26T08:46:02;15.10;99.90
19256;DHT22;9762;52.490;13.410;2022-10-26T08:48:34;15.20;99.90
19256;DHT22;9762;52.490;13.410;2022-10-26T08:51:17;15.20;99.90
19256;DHT22;9762;52.490;13.410;2022-10-26T08:56:15;15.30;99.90
19256;DHT22;9762;52.490;13.410;2022-10-26T08:59:00;15.40;99.90
19256;DHT22;9762;52.490;13.410;2022-10-26T09:01:30;15.40;99.90
19256;DHT22;9762;52.490;13.410;2022-10-26T09:03:56;15.50;99.90
19256;DHT22;9762;52.490;13.410;2022-10-26T09:09:22;15.60;99.90
19256;DHT22;9762;52.490;13.410;2022-10-26T09:23:20;15.90;99.90
19256;DHT22;9762;52.490;13.410;2022-10-26T09:25:58;16.00;99.90
19256;DHT22;9762;52.490;13.410;2022-10-26T09:28:26;16.10;99.90
19256;DHT22;9762;52.490;13.410;2022-10-26T09:30:52;16.10;99.90
19256;DHT22;9762;52.490;13.410;2022-10-26T09:33:23;16.20;99.90
19256;DHT22;9762;52.490;13.410;2022-10-26T09:35:51;16.30;99.90
19256;DHT22;9762;52.490;13.410;2022-10-26T09:38:40;16.30;99.90
19256;DHT22;9762;52.490;13.410;2022-10-26T09:44:30;16.50;99.90
19256;DHT22;9762;52.490;13.410;2022-10-26T09:47:05;16.70;99.90
19256;DHT22;9762;52.490;13.410;2022-10-26T09:49:43;16.70;99.90
19256;DHT22;9762;52.490;13.410;2022-10-26T09:52:13;16.80;99.90
19256;DHT22;9762;52.490;13.410;2022-10-26T09:54:39;16.80;99.90
19256;DHT22;9762;52.490;13.410;2022-10-26T09:57:05;16.90;99.90
19256;DHT22;9762;52.490;13.410;2022-10-26T09:59:36;16.90;99.90
19256;DHT22;9762;52.490;13.410;2022-10-26T10:04:58;17.10;99.90
19256;DHT22;9762;52.490;13.410;2022-10-26T10:07:23;17.10;99.90
19256;DHT22;9762;52.490;13.410;2022-10-26T10:10:14;17.20;99.90
19256;DHT22;9762;52.490;13.410;2022-10-26T10:12:39;17.30;99.90
19256;DHT22;9762;52.490;13.410;2022-10-26T10:15:16;17.40;99.90
19256;DHT22;9762;52.490;13.410;2022-10-26T10:17:52;17.40;99.90
19256;DHT22;9762;52.490;13.410;2022-10-26T10:20:28;17.50;99.90
19256;DHT22;9762;52.490;13.410;2022-10-26T10:23:02;17.50;99.90
19256;DHT22;9762;52.490;13.410;2022-10-26T10:25:36;17.60;99.90
19256;DHT22;9762;52.490;13.410;2022-10-26T10:28:18;17.60;99.90
19256;DHT22;9762;52.490;13.410;2022-10-26T10:30:52;17.70;99.90
19256;DHT22;9762;52.490;13.410;2022-10-26T10:33:20;17.80;99.80
19256;DHT22;9762;52.490;13.410;2022-10-26T10:35:51;17.90;99.70
19256;DHT22;9762;52.490;13.410;2022-10-26T10:38:20;17.90;99.40
19256;DHT22;9762;52.490;13.410;2022-10-26T10:40:57;18.00;99.10
19256;DHT22;9762;52.490;13.410;2022-10-26T10:43:24;18.00;99.20
19256;DHT22;9762;52.490;13.410;2022-10-26T10:45:53;18.10;99.20
19256;DHT22;9762;52.490;13.410;2022-10-26T10:48:23;18.10;99.10
19256;DHT22;9762;52.490;13.410;2022-10-26T10:51:01;18.20;99.00
19256;DHT22;9762;52.490;13.410;2022-10-26T10:56:54;18.40;98.80
19256;DHT22;9762;52.490;13.410;2022-10-26T11:07:25;19.60;97.00
19256;DHT22;9762;52.490;13.410;2022-10-26T11:09:53;19.70;96.60
19256;DHT22;9762;52.490;13.410;2022-10-26T11:12:26;19.80;96.40
19256;DHT22;9762;52.490;13.410;2022-10-26T11:14:59;19.90;96.40
19256;DHT22;9762;52.490;13.410;2022-10-26T11:17:30;20.00;96.20
19256;DHT22;9762;52.490;13.410;2022-10-26T11:19:58;20.20;95.20
19256;DHT22;9762;52.490;13.410;2022-10-26T11:22:28;20.30;95.20
19256;DHT22;9762;52.490;13.410;2022-10-26T11:25:17;20.50;95.10
19256;DHT22;9762;52.490;13.410;2022-10-26T11:28:00;20.60;94.70
19256;DHT22;9762;52.490;13.410;2022-10-26T11:30:28;20.60;94.00
19256;DHT22;9762;52.490;13.410;2022-10-26T11:33:11;20.60;93.70
19256;DHT22;9762;52.490;13.410;2022-10-26T11:35:49;20.60;93.90
19256;DHT22;9762;52.490;13.410;2022-10-26T11:38:37;20.60;93.80
19256;DHT22;9762;52.490;13.410;2022-10-26T11:43:47;20.50;93.80
19256;DHT22;9762;52.490;13.410;2022-10-26T11:46:17;20.50;93.50
19256;DHT22;9762;52.490;13.410;2022-10-26T11:48:57;20.50;93.70
19256;DHT22;9762;52.490;13.410;2022-10-26T11:53:57;20.40;93.40
19256;DHT22;9762;52.490;13.410;2022-10-26T11:56:39;20.40;93.40
19256;DHT22;9762;52.490;13.410;2022-10-26T11:59:14;20.40;93.60
19256;DHT22;9762;52.490;13.410;2022-10-26T12:01:42;20.30;93.70
19256;DHT22;9762;52.490;13.410;2022-10-26T12:04:09;20.30;93.80
19256;DHT22;9762;52.490;13.410;2022-10-26T12:06:35;20.30;93.80
19256;DHT22;9762;52.490;13.410;2022-10-26T12:09:07;20.30;93.60
19256;DHT22;9762;52.490;13.410;2022-10-26T12:12:02;20.30;93.50
19256;DHT22;9762;52.490;13.410;2022-10-26T12:23:05;20.30;93.50
19256;DHT22;9762;52.490;13.410;2022-10-26T12:25:33;20.30;93.30
19256;DHT22;9762;52.490;13.410;2022-10-26T12:27:59;20.30;93.30
19256;DHT22;9762;52.490;13.410;2022-10-26T12:30:26;20.30;93.10
19256;DHT22;9762;52.490;13.410;2022-10-26T12:32:54;20.30;93.30
19256;DHT22;9762;52.490;13.410;2022-10-26T12:35:34;20.40;93.30
19256;DHT22;9762;52.490;13.410;2022-10-26T12:41:19;20.40;93.10
19256;DHT22;9762;52.490;13.410;2022-10-26T12:43:45;20.50;92.80
19256;DHT22;9762;52.490;13.410;2022-10-26T12:59:59;20.60;92.50
19256;DHT22;9762;52.490;13.410;2022-10-26T13:07:44;20.70;92.20
19256;DHT22;9762;52.490;13.410;2022-10-26T13:12:54;20.60;92.20
19256;DHT22;9762;52.490;13.410;2022-10-26T13:15:28;20.70;92.30
19256;DHT22;9762;52.490;13.410;2022-10-26T13:17:58;20.60;92.30
19256;DHT22;9762;52.490;13.410;2022-10-26T13:20:25;20.60;92.40
19256;DHT22;9762;52.490;13.410;2022-10-26T13:22:51;20.60;92.10
19256;DHT22;9762;52.490;13.410;2022-10-26T13:25:28;20.60;92.40
19256;DHT22;9762;52.490;13.410;2022-10-26T13:28:30;20.60;92.50
19256;DHT22;9762;52.490;13.410;2022-10-26T13:30:56;20.60;92.40
19256;DHT22;9762;52.490;13.410;2022-10-26T13:33:24;20.60;92.30
19256;DHT22;9762;52.490;13.410;2022-10-26T13:35:55;20.60;92.40
19256;DHT22;9762;52.490;13.410;2022-10-26T13:38:24;20.70;92.50
19256;DHT22;9762;52.490;13.410;2022-10-26T13:41:01;20.70;92.40
19256;DHT22;9762;52.490;13.410;2022-10-26T13:43:30;20.70;92.20
19256;DHT22;9762;52.490;13.410;2022-10-26T13:45:58;20.70;92.30
19256;DHT22;9762;52.490;13.410;2022-10-26T13:48:40;20.70;92.40
19256;DHT22;9762;52.490;13.410;2022-10-26T13:51:19;20.60;92.20
19256;DHT22;9762;52.490;13.410;2022-10-26T13:53:47;20.60;92.40
19256;DHT22;9762;52.490;13.410;2022-10-26T13:58:59;20.70;92.50
19256;DHT22;9762;52.490;13.410;2022-10-26T14:01:27;20.70;92.50
19256;DHT22;9762;52.490;13.410;2022-10-26T14:03:53;20.70;92.30
19256;DHT22;9762;52.490;13.410;2022-10-26T14:06:27;20.70;92.10
19256;DHT22;9762;52.490;13.410;2022-10-26T14:08:56;20.70;91.90
19256;DHT22;9762;52.490;13.410;2022-10-26T14:11:29;20.60;91.80
19256;DHT22;9762;52.490;13.410;2022-10-26T14:13:56;20.60;91.70
19256;DHT22;9762;52.490;13.410;2022-10-26T14:16:25;20.70;91.80
19256;DHT22;9762;52.490;13.410;2022-10-26T14:18:52;20.60;91.60
19256;DHT22;9762;52.490;13.410;2022-10-26T14:21:19;20.70;91.70
19256;DHT22;9762;52.490;13.410;2022-10-26T14:23:49;20.70;91.60
19256;DHT22;9762;52.490;13.410;2022-10-26T14:26:24;20.70;91.80
19256;DHT22;9762;52.490;13.410;2022-10-26T14:28:53;20.70;91.80
19256;DHT22;9762;52.490;13.410;2022-10-26T14:33:47;20.70;91.90
19256;DHT22;9762;52.490;13.410;2022-10-26T14:36:14;20.70;91.90
19256;DHT22;9762;52.490;13.410;2022-10-26T14:38:45;20.70;91.90
19256;DHT22;9762;52.490;13.410;2022-10-26T14:41:15;20.70;91.90
19256;DHT22;9762;52.490;13.410;2022-10-26T14:43:42;20.70;91.90
19256;DHT22;9762;52.490;13.410;2022-10-26T14:46:17;20.70;92.00
19256;DHT22;9762;52.490;13.410;2022-10-26T14:48:56;20.60;92.00
19256;DHT22;9762;52.490;13.410;2022-10-26T14:51:28;20.60;92.00
19256;DHT22;9762;52.490;13.410;2022-10-26T14:53:56;20.60;92.10
19256;DHT22;9762;52.490;13.410;2022-10-26T14:56:37;20.50;92.00
19256;DHT22;9762;52.490;13.410;2022-10-26T15:02:11;20.50;92.30
19256;DHT22;9762;52.490;13.410;2022-10-26T15:04:41;20.40;92.40
19256;DHT22;9762;52.490;13.410;2022-10-26T15:07:17;20.40;92.50
19256;DHT22;9762;52.490;13.410;2022-10-26T15:09:52;20.40;92.60
19256;DHT22;9762;52.490;13.410;2022-10-26T15:12:18;20.30;92.70
19256;DHT22;9762;52.490;13.410;2022-10-26T15:14:45;20.30;92.70
19256;DHT22;9762;52.490;13.410;2022-10-26T15:17:32;20.30;92.80
19256;DHT22;9762;52.490;13.410;2022-10-26T15:20:05;20.30;92.80
19256;DHT22;9762;52.490;13.410;2022-10-26T15:22:32;20.30;92.90
19256;DHT22;9762;52.490;13.410;2022-10-26T15:25:01;20.30;93.00
19256;DHT22;9762;52.490;13.410;2022-10-26T15:27:28;20.30;93.10
19256;DHT22;9762;52.490;13.410;2022-10-26T15:30:23;20.30;93.20
19256;DHT22;9762;52.490;13.410;2022-10-26T15:32:50;20.30;93.20
19256;DHT22;9762;52.490;13.410;2022-10-26T15:35:29;20.20;93.30
19256;DHT22;9762;52.490;13.410;2022-10-26T15:37:56;20.20;93.30
19256;DHT22;9762;52.490;13.410;2022-10-26T15:40:23;20.10;93.50
19256;DHT22;9762;52.490;13.410;2022-10-26T15:42:51;20.10;93.50
19256;DHT22;9762;52.490;13.410;2022-10-26T15:45:21;20.10;93.60
19256;DHT22;9762;52.490;13.410;2022-10-26T15:47:47;20.10;93.60
19256;DHT22;9762;52.490;13.410;2022-10-26T15:50:16;20.20;93.80
19256;DHT22;9762;52.490;13.410;2022-10-26T15:52:42;20.20;93.70
19256;DHT22;9762;52.490;13.410;2022-10-26T15:55:09;20.10;93.70
19256;DHT22;9762;52.490;13.410;2022-10-26T15:57:35;20.10;93.80
19256;DHT22;9762;52.490;13.410;2022-10-26T16:00:01;20.00;93.90
19256;DHT22;9762;52.490;13.410;2022-10-26T16:02:26;20.00;93.90
19256;DHT22;9762;52.490;13.410;2022-10-26T16:04:52;19.90;94.00
19256;DHT22;9762;52.490;13.410;2022-10-26T16:07:18;19.90;94.10
19256;DHT22;9762;52.490;13.410;2022-10-26T16:09:44;19.80;94.20
19256;DHT22;9762;52.490;13.410;2022-10-26T16:12:11;19.80;94.30
19256;DHT22;9762;52.490;13.410;2022-10-26T16:14:37;19.70;94.40
19256;DHT22;9762;52.490;13.410;2022-10-26T16:17:03;19.70;94.60
19256;DHT22;9762;52.490;13.410;2022-10-26T16:19:29;19.70;94.70
19256;DHT22;9762;52.490;13.410;2022-10-26T16:21:54;19.60;94.70
19256;DHT22;9762;52.490;13.410;2022-10-26T16:24:20;19.60;94.90
19256;DHT22;9762;52.490;13.410;2022-10-26T16:26:46;19.50;95.00
19256;DHT22;9762;52.490;13.410;2022-10-26T16:29:11;19.50;95.10
19256;DHT22;9762;52.490;13.410;2022-10-26T16:31:37;19.40;95.20
19256;DHT22;9762;52.490;13.410;2022-10-26T16:34:03;19.40;95.20
19256;DHT22;9762;52.490;13.410;2022-10-26T16:36:29;19.40;95.30
19256;DHT22;9762;52.490;13.410;2022-10-26T16:38:57;19.40;95.40
19256;DHT22;9762;52.490;13.410;2022-10-26T16:41:22;19.30;95.50
19256;DHT22;9762;52.490;13.410;2022-10-26T16:43:48;19.30;95.70
19256;DHT22;9762;52.490;13.410;2022-10-26T16:46:15;19.20;95.70
19256;DHT22;9762;52.490;13.410;2022-10-26T16:48:43;19.20;95.80
19256;DHT22;9762;52.490;13.410;2022-10-26T16:51:18;19.20;95.90
19256;DHT22;9762;52.490;13.410;2022-10-26T16:53:49;19.10;95.90
19256;DHT22;9762;52.490;13.410;2022-10-26T16:56:18;19.10;96.00
19256;DHT22;9762;52.490;13.410;2022-10-26T16:58:43;19.10;96.10
19256;DHT22;9762;52.490;13.410;2022-10-26T17:01:10;19.10;96.10
19256;DHT22;9762;52.490;13.410;2022-10-26T17:03:37;19.00;96.20
19256;DHT22;9762;52.490;13.410;2022-10-26T17:06:05;19.00;96.30
19256;DHT22;9762;52.490;13.410;2022-10-26T17:08:32;19.00;96.40
19256;DHT22;9762;52.490;13.410;2022-10-26T17:11:12;19.00;96.60
19256;DHT22;9762;52.490;13.410;2022-10-26T17:13:38;18.90;96.60
19256;DHT22;9762;52.490;13.410;2022-10-26T17:16:11;18.90;96.70
19256;DHT22;9762;52.490;13.410;2022-10-26T17:18:41;18.90;96.80
19256;DHT22;9762;52.490;13.410;2022-10-26T17:21:11;18.90;96.90
19256;DHT22;9762;52.490;13.410;2022-10-26T17:23:37;18.90;96.90
19256;DHT22;9762;52.490;13.410;2022-10-26T17:26:05;18.90;97.00
19256;DHT22;9762;52.490;13.410;2022-10-26T17:28:31;18.80;97.10
19256;DHT22;9762;52.490;13.410;2022-10-26T17:31:11;18.80;97.50
19256;DHT22;9762;52.490;13.410;2022-10-26T17:33:39;18.80;97.20
19256;DHT22;9762;52.490;13.410;2022-10-26T17:36:06;18.80;97.20
19256;DHT22;9762;52.490;13.410;2022-10-26T17:38:37;18.80;97.20